Time;durP1;ratioP1;P1;durP2;ratioP2;P2;SDS_P1;SDS_P2;PMS_P1;PMS_P2;Temp;Humidity;BMP_temperature;BMP_pressure;BME280_temperature;BME280_humidity;BME280_pressure;Samples;Min_cycle;Max_cycle;Signal;HPM_P1;HPM_P2
2024/01/16 00:02:21;;;;;;;1.97;1.80;;;21.00;50.50;;;;;;5052934;28;20446;-71
2024/01/16 00:04:50;;;;;;;1.67;1.57;;;21.00;50.50;;;;;;5051350;28;20444;-71
2024/01/16 00:07:18;;;;;;;1.93;1.83;;;21.00;50.50;;;;;;5050454;28;20874;-71
2024/01/16 00:09:46;;;;;;;1.60;1.40;;;21.00;50.40;;;;;;5051784;28;20432;-71
2024/01/16 00:12:15;;;;;;;1.40;1.30;;;21.00;50.40;;;;;;5051511;28;20554;-71
2024/01/16 00:14:43;;;;;;;2.60;1.50;;;20.90;50.30;;;;;;5051680;28;20471;-71
2024/01/16 00:17:12;;;;;;;1.37;1.20;;;20.90;50.40;;;;;;5051080;28;20498;-71
2024/01/16 00:19:42;;;;;;;1.90;1.47;;;20.90;50.20;;;;;;5049100;28;20464;-71
2024/01/16 00:22:10;;;;;;;1.67;1.57;;;20.90;50.40;;;;;;5052529;28;20890;-71
2024/01/16 00:24:39;;;;;;;1.87;1.77;;;20.90;50.40;;;;;;5051093;28;20437;-71
2024/01/16 00:27:07;;;;;;;1.70;1.60;;;20.90;50.30;;;;;;5051358;28;20959;-70
2024/01/16 00:29:39;;;;;;;1.40;1.30;;;20.90;50.30;;;;;;5050518;28;21018;-71
2024/01/16 00:32:07;;;;;;;1.70;1.60;;;20.90;50.10;;;;;;5051875;28;20517;-71
2024/01/16 00:34:35;;;;;;;1.50;1.40;;;20.90;50.30;;;;;;5046793;28;20550;-71
2024/01/16 00:37:05;;;;;;;2.17;1.57;;;20.90;50.30;;;;;;5049402;28;20444;-71
2024/01/16 00:39:33;;;;;;;1.50;1.40;;;20.80;50.30;;;;;;5049345;28;20836;-70
2024/01/16 00:42:03;;;;;;;1.53;1.30;;;20.80;50.30;;;;;;5046112;28;20801;-71
2024/01/16 00:44:31;;;;;;;1.30;1.20;;;20.80;50.30;;;;;;5050315;28;20483;-71
2024/01/16 00:47:01;;;;;;;1.30;1.20;;;20.80;50.20;;;;;;5051510;28;20563;-71
2024/01/16 00:49:30;;;;;;;1.53;1.43;;;20.80;50.20;;;;;;5050665;28;20429;-71
2024/01/16 00:51:58;;;;;;;1.30;1.20;;;20.80;50.20;;;;;;5051301;28;20445;-71
2024/01/16 00:54:27;;;;;;;1.60;1.50;;;20.80;50.20;;;;;;5051240;28;20498;-72
2024/01/16 00:56:59;;;;;;;1.47;1.37;;;20.80;50.20;;;;;;5051260;28;20497;-71
2024/01/16 00:59:27;;;;;;;1.40;1.30;;;20.70;50.10;;;;;;5051359;28;20455;-71
2024/01/16 01:01:56;;;;;;;1.63;1.53;;;20.70;50.20;;;;;;5048867;28;20457;-71
2024/01/16 01:04:24;;;;;;;1.40;1.20;;;20.70;50.10;;;;;;5050437;28;20439;-70
2024/01/16 01:06:53;;;;;;;1.23;1.10;;;20.70;50.10;;;;;;5008030;28;1131432;-70
2024/01/16 01:09:21;;;;;;;1.57;1.47;;;20.70;50.00;;;;;;5051684;28;20534;-70
2024/01/16 01:11:51;;;;;;;1.20;1.10;;;20.70;50.10;;;;;;5050803;28;20436;-70
2024/01/16 01:14:20;;;;;;;1.23;1.07;;;20.70;50.10;;;;;;5052407;28;20557;-70
2024/01/16 01:16:48;;;;;;;1.40;1.27;;;20.70;50.10;;;;;;5046230;28;20539;-70
2024/01/16 01:19:16;;;;;;;1.67;1.57;;;20.70;50.10;;;;;;5052296;28;20496;-70
2024/01/16 01:21:45;;;;;;;1.47;1.40;;;20.70;49.20;;;;;;5052033;28;20448;-70
2024/01/16 01:24:13;;;;;;;1.60;1.50;;;20.60;49.40;;;;;;5052772;28;20845;-70
2024/01/16 01:26:44;;;;;;;1.43;1.33;;;20.60;48.50;;;;;;5051604;28;20528;-70
2024/01/16 01:29:13;;;;;;;1.20;1.10;;;20.50;49.90;;;;;;5050838;28;21379;-71
2024/01/16 01:31:45;;;;;;;1.60;1.50;;;20.50;50.10;;;;;;5049974;28;20478;-71
2024/01/16 01:34:14;;;;;;;1.53;1.37;;;20.50;50.10;;;;;;5050775;28;20829;-71
2024/01/16 01:36:43;;;;;;;1.63;1.53;;;20.50;49.90;;;;;;5043108;28;20459;-70
2024/01/16 01:39:11;;;;;;;1.47;1.40;;;20.50;50.10;;;;;;5051549;28;20460;-71
2024/01/16 01:41:40;;;;;;;1.23;1.13;;;20.50;50.10;;;;;;5051200;28;20447;-71
2024/01/16 01:44:15;;;;;;;1.20;1.20;;;20.50;50.00;;;;;;5046104;28;20464;-71
2024/01/16 01:46:46;;;;;;;3.57;1.27;;;20.50;49.80;;;;;;5047786;28;20870;-71
2024/01/16 01:49:16;;;;;;;1.27;1.17;;;20.50;49.70;;;;;;5050497;28;20432;-71
2024/01/16 01:51:45;;;;;;;1.50;1.30;;;20.50;49.80;;;;;;5049346;28;20555;-71
2024/01/16 01:54:15;;;;;;;1.67;1.50;;;20.40;49.90;;;;;;5047967;28;20474;-71
2024/01/16 01:56:45;;;;;;;2.93;1.40;;;20.40;50.00;;;;;;5051579;28;20830;-71
2024/01/16 01:59:15;;;;;;;1.40;1.30;;;20.40;50.00;;;;;;5049968;28;20440;-70
2024/01/16 02:01:45;;;;;;;1.37;1.27;;;20.40;50.00;;;;;;5051144;28;20471;-70
2024/01/16 02:04:15;;;;;;;1.63;1.50;;;20.40;49.70;;;;;;5050174;28;20435;-70
2024/01/16 02:06:45;;;;;;;2.17;1.77;;;20.40;49.90;;;;;;5048689;28;20487;-70
2024/01/16 02:09:14;;;;;;;1.83;1.50;;;20.40;50.00;;;;;;5050791;28;20486;-71
2024/01/16 02:11:42;;;;;;;2.23;1.27;;;20.40;50.00;;;;;;5047661;28;20440;-71
2024/01/16 02:14:11;;;;;;;1.43;1.33;;;20.40;50.00;;;;;;5051211;28;20526;-70
2024/01/16 02:16:44;;;;;;;1.53;1.43;;;20.30;49.90;;;;;;5051387;28;20935;-71
2024/01/16 02:19:14;;;;;;;1.30;1.20;;;20.30;50.00;;;;;;5049522;28;20428;-70
2024/01/16 02:21:47;;;;;;;1.53;1.30;;;20.30;49.90;;;;;;5047281;28;20438;-70
2024/01/16 02:24:20;;;;;;;1.33;1.23;;;20.30;49.90;;;;;;5047910;28;20475;-70
2024/01/16 02:26:48;;;;;;;1.63;1.40;;;20.30;49.90;;;;;;5049965;28;20981;-70
2024/01/16 02:29:17;;;;;;;1.50;1.40;;;20.30;49.90;;;;;;5050268;28;20445;-70
2024/01/16 02:31:46;;;;;;;1.40;1.30;;;20.30;49.90;;;;;;5051232;28;20451;-70
2024/01/16 02:34:14;;;;;;;3.23;1.40;;;20.30;49.90;;;;;;5049773;28;20439;-70
2024/01/16 02:36:42;;;;;;;1.67;1.50;;;20.30;49.80;;;;;;5051045;28;20467;-70
2024/01/16 02:39:11;;;;;;;1.93;1.20;;;20.30;49.80;;;;;;5043969;28;20497;-70
2024/01/16 02:41:41;;;;;;;1.47;1.37;;;20.30;49.80;;;;;;5048903;28;20454;-70
2024/01/16 02:44:09;;;;;;;1.97;1.47;;;20.30;49.80;;;;;;5045400;28;20463;-70
2024/01/16 02:46:38;;;;;;;1.40;1.30;;;20.30;49.70;;;;;;5050716;28;20435;-70
2024/01/16 02:49:07;;;;;;;1.97;1.77;;;20.30;49.70;;;;;;5044996;28;20447;-70
2024/01/16 02:51:35;;;;;;;1.60;1.50;;;20.30;49.70;;;;;;5051099;28;20449;-70
2024/01/16 02:54:04;;;;;;;1.00;0.93;;;20.20;49.60;;;;;;5050432;28;20444;-70
2024/01/16 02:56:32;;;;;;;1.57;1.47;;;20.20;49.60;;;;;;5049782;28;20534;-70
2024/01/16 02:59:02;;;;;;;1.70;1.60;;;20.20;49.60;;;;;;5046183;28;20780;-71
2024/01/16 03:01:30;;;;;;;1.30;1.17;;;20.20;49.60;;;;;;5050128;28;20450;-71
2024/01/16 03:03:58;;;;;;;1.80;1.30;;;20.20;49.60;;;;;;5049073;28;20431;-71
2024/01/16 03:06:28;;;;;;;1.83;1.40;;;20.20;49.60;;;;;;5050356;28;21308;-71
2024/01/16 03:08:57;;;;;;;1.37;1.27;;;20.20;49.50;;;;;;5045675;28;20468;-71
2024/01/16 03:11:25;;;;;;;1.20;1.10;;;20.20;49.50;;;;;;5050063;28;20444;-70
2024/01/16 03:13:53;;;;;;;1.63;1.50;;;20.20;49.50;;;;;;5049181;28;20462;-71
2024/01/16 03:16:23;;;;;;;1.53;1.30;;;20.20;49.50;;;;;;5049902;28;20433;-70
2024/01/16 03:18:51;;;;;;;2.70;1.90;;;20.20;49.50;;;;;;5046839;28;20439;-70
2024/01/16 03:21:20;;;;;;;1.67;1.20;;;20.10;49.50;;;;;;5050569;28;20961;-70
2024/01/16 03:23:48;;;;;;;1.17;1.13;;;20.10;49.50;;;;;;5050070;28;20926;-71
2024/01/16 03:26:17;;;;;;;2.60;1.40;;;20.10;49.40;;;;;;5049854;28;20470;-71
2024/01/16 03:28:45;;;;;;;1.23;1.13;;;20.10;49.40;;;;;;5050364;28;20474;-71
2024/01/16 03:31:14;;;;;;;1.40;1.30;;;20.10;49.40;;;;;;5062416;28;20445;-71
2024/01/16 03:33:44;;;;;;;1.77;1.13;;;20.10;49.40;;;;;;5052089;28;20546;-71
2024/01/16 03:36:13;;;;;;;1.43;1.33;;;20.10;49.30;;;;;;5048179;28;20450;-71
2024/01/16 03:38:43;;;;;;;1.80;1.70;;;20.10;49.40;;;;;;5049105;28;20431;-71
2024/01/16 03:41:12;;;;;;;1.50;1.40;;;20.10;49.40;;;;;;5048947;28;20479;-70
2024/01/16 03:43:40;;;;;;;1.10;1.10;;;20.10;49.30;;;;;;5044109;28;20500;-70
2024/01/16 03:46:11;;;;;;;1.53;1.40;;;20.10;49.00;;;;;;5047290;28;20447;-71
2024/01/16 03:48:39;;;;;;;1.30;1.20;;;20.00;48.00;;;;;;5048254;28;20849;-71
2024/01/16 03:51:10;;;;;;;1.87;1.67;;;20.00;48.50;;;;;;5049728;28;20931;-71
2024/01/16 03:53:38;;;;;;;2.10;1.90;;;20.00;48.20;;;;;;5050635;28;20774;-71
2024/01/16 03:56:07;;;;;;;1.90;1.60;;;19.90;48.80;;;;;;5049712;28;20451;-71
2024/01/16 03:58:36;;;;;;;2.57;1.30;;;19.90;47.80;;;;;;5045868;28;20436;-71
2024/01/16 04:01:04;;;;;;;1.00;1.00;;;19.80;47.80;;;;;;5051809;28;20439;-71
2024/01/16 04:03:32;;;;;;;1.47;1.37;;;19.80;48.30;;;;;;5053216;28;20454;-71
2024/01/16 04:06:01;;;;;;;1.70;1.20;;;19.70;48.20;;;;;;5052472;28;20431;-71
2024/01/16 04:08:30;;;;;;;1.97;1.30;;;19.70;48.00;;;;;;5052942;28;20582;-71
2024/01/16 04:10:59;;;;;;;1.37;1.27;;;19.70;48.10;;;;;;5053301;28;20439;-71
2024/01/16 04:13:27;;;;;;;1.50;1.40;;;19.60;49.40;;;;;;5053467;28;20454;-71
2024/01/16 04:15:55;;;;;;;1.40;1.30;;;19.60;49.30;;;;;;5053161;28;20504;-71
2024/01/16 04:18:23;;;;;;;1.80;1.30;;;19.60;48.60;;;;;;5048687;28;20674;-71
2024/01/16 04:20:52;;;;;;;1.70;1.37;;;19.60;49.60;;;;;;5050814;28;20791;-72
2024/01/16 04:23:20;;;;;;;1.73;1.60;;;19.60;48.80;;;;;;5054724;28;20930;-72
2024/01/16 04:25:50;;;;;;;2.07;1.27;;;19.70;49.60;;;;;;5052759;28;20475;-72
2024/01/16 04:28:18;;;;;;;2.37;1.33;;;19.70;49.50;;;;;;5052349;28;20541;-71
2024/01/16 04:30:47;;;;;;;1.80;1.40;;;19.70;49.20;;;;;;5053809;28;20479;-71
2024/01/16 04:33:15;;;;;;;3.43;1.57;;;19.80;49.30;;;;;;5053730;28;20451;-72
2024/01/16 04:35:43;;;;;;;1.93;1.27;;;19.80;49.10;;;;;;5049481;28;20469;-72
2024/01/16 04:38:12;;;;;;;2.27;1.93;;;19.90;48.90;;;;;;5052329;28;20436;-72
2024/01/16 04:40:40;;;;;;;1.47;1.37;;;19.90;48.80;;;;;;5049554;28;20447;-72
2024/01/16 04:43:10;;;;;;;1.30;1.20;;;20.00;48.60;;;;;;5051629;28;20520;-71
2024/01/16 04:45:38;;;;;;;1.70;1.60;;;20.00;48.50;;;;;;5046120;28;20819;-72
2024/01/16 04:48:08;;;;;;;1.87;1.73;;;20.10;48.20;;;;;;5054087;28;20979;-72
2024/01/16 04:50:36;;;;;;;1.50;1.40;;;20.10;47.40;;;;;;5042878;28;20471;-72
2024/01/16 04:53:05;;;;;;;1.90;1.50;;;20.10;48.10;;;;;;5052520;28;20443;-72
2024/01/16 04:55:34;;;;;;;1.90;1.70;;;20.20;47.30;;;;;;5050734;28;20447;-72
2024/01/16 04:58:02;;;;;;;1.90;1.70;;;20.20;46.80;;;;;;5052209;28;20444;-71
2024/01/16 05:00:32;;;;;;;2.17;1.60;;;20.20;46.80;;;;;;5050277;28;20464;-72
2024/01/16 05:03:00;;;;;;;2.67;1.80;;;20.20;47.40;;;;;;5045475;28;20456;-72
2024/01/16 05:05:28;;;;;;;1.67;1.57;;;20.30;47.20;;;;;;5052057;28;20451;-72
2024/01/16 05:07:57;;;;;;;2.10;1.37;;;20.30;46.60;;;;;;5051899;28;20479;-71
2024/01/16 05:10:26;;;;;;;2.17;1.73;;;20.30;46.30;;;;;;5046082;28;20474;-71
2024/01/16 05:12:54;;;;;;;2.30;1.67;;;20.40;47.10;;;;;;5047099;28;20458;-70
2024/01/16 05:15:22;;;;;;;2.50;2.30;;;20.40;47.70;;;;;;5048857;28;20443;-71
2024/01/16 05:17:53;;;;;;;1.60;1.30;;;20.40;47.70;;;;;;5046942;28;20455;-71
2024/01/16 05:20:22;;;;;;;2.60;2.20;;;20.50;47.70;;;;;;5045723;28;20452;-71
2024/01/16 05:22:50;;;;;;;1.67;1.57;;;20.50;47.60;;;;;;5054173;28;20446;-71
2024/01/16 05:25:19;;;;;;;1.97;1.77;;;20.50;47.70;;;;;;5050342;28;20498;-71
2024/01/16 05:27:49;;;;;;;1.40;1.30;;;20.60;47.70;;;;;;5050064;28;20457;-70
2024/01/16 05:30:17;;;;;;;1.63;1.33;;;20.60;47.90;;;;;;5053262;28;20466;-70
2024/01/16 05:32:46;;;;;;;2.03;1.77;;;20.60;47.90;;;;;;5055424;28;20465;-71
2024/01/16 05:35:16;;;;;;;3.53;1.80;;;20.70;47.90;;;;;;5043856;28;20459;-72
2024/01/16 05:37:44;;;;;;;1.97;1.80;;;20.70;47.80;;;;;;5050434;28;20805;-73
2024/01/16 05:40:12;;;;;;;1.40;1.20;;;20.80;47.60;;;;;;5050708;28;20800;-73
2024/01/16 05:42:41;;;;;;;3.43;1.57;;;20.80;47.60;;;;;;5049930;28;20451;-74
2024/01/16 05:45:10;;;;;;;2.83;1.67;;;20.80;47.70;;;;;;5045547;28;20510;-72
2024/01/16 05:47:38;;;;;;;1.83;1.60;;;20.80;48.00;;;;;;5049497;28;20460;-73
2024/01/16 05:50:08;;;;;;;4.50;1.90;;;20.80;48.40;;;;;;5049705;28;20466;-74
2024/01/16 05:52:40;;;;;;;1.67;1.57;;;20.80;48.60;;;;;;5048869;28;20465;-75
2024/01/16 05:55:10;;;;;;;2.27;1.80;;;20.70;48.70;;;;;;5051594;28;20525;-75
2024/01/16 05:57:39;;;;;;;3.10;1.47;;;20.70;48.90;;;;;;5052108;28;20946;-74
2024/01/16 06:00:08;;;;;;;1.23;1.13;;;20.70;48.90;;;;;;5053021;28;20467;-75
2024/01/16 06:02:36;;;;;;;1.60;1.50;;;20.70;48.90;;;;;;5057135;28;21700;-74
2024/01/16 06:05:05;;;;;;;1.60;1.23;;;20.70;49.10;;;;;;5053808;28;20456;-73
2024/01/16 06:07:34;;;;;;;3.10;1.80;;;20.70;49.10;;;;;;5050840;28;20493;-75
2024/01/16 06:10:04;;;;;;;1.27;1.17;;;20.70;49.00;;;;;;5052636;28;20856;-76
2024/01/16 06:12:34;;;;;;;1.50;1.37;;;20.60;49.10;;;;;;5052793;28;20451;-76
2024/01/16 06:15:03;;;;;;;1.60;1.50;;;20.60;49.10;;;;;;5046939;28;20459;-75
2024/01/16 06:17:31;;;;;;;2.40;2.20;;;20.70;49.20;;;;;;5047028;28;20478;-76
2024/01/16 06:19:59;;;;;;;3.73;2.00;;;20.70;49.20;;;;;;5042318;28;20464;-76
2024/01/16 06:22:27;;;;;;;2.30;1.73;;;20.70;49.20;;;;;;5042936;28;20463;-76
2024/01/16 06:24:55;;;;;;;1.70;1.37;;;20.70;49.10;;;;;;5037091;28;20447;-75
2024/01/16 06:27:25;;;;;;;1.37;1.17;;;20.70;49.10;;;;;;5043962;28;20501;-75
2024/01/16 06:29:53;;;;;;;1.77;1.67;;;20.70;49.00;;;;;;5046231;28;20477;-76
2024/01/16 06:32:21;;;;;;;2.37;1.50;;;20.70;48.90;;;;;;5050150;28;20459;-75
2024/01/16 06:34:50;;;;;;;3.63;1.83;;;20.70;48.80;;;;;;5044397;28;20435;-74
2024/01/16 06:37:18;;;;;;;2.97;2.13;;;20.70;48.60;;;;;;5049283;28;20675;-74
2024/01/16 06:39:46;;;;;;;2.60;1.63;;;20.70;48.80;;;;;;5049157;28;20478;-74
2024/01/16 06:42:14;;;;;;;2.60;1.70;;;20.70;48.60;;;;;;5047970;28;20501;-74
2024/01/16 06:44:44;;;;;;;3.57;2.40;;;20.70;48.40;;;;;;5043165;28;20537;-74
2024/01/16 06:47:12;;;;;;;3.80;2.87;;;20.70;48.30;;;;;;5046917;28;20439;-74
2024/01/16 06:49:40;;;;;;;4.33;2.67;;;20.70;48.30;;;;;;5043300;28;20463;-74
2024/01/16 06:52:09;;;;;;;4.97;1.93;;;20.70;48.20;;;;;;5049003;28;20439;-75
2024/01/16 06:54:37;;;;;;;3.37;2.30;;;20.70;48.10;;;;;;5048271;28;21004;-75
2024/01/16 06:57:06;;;;;;;3.53;2.00;;;20.70;48.10;;;;;;5049989;28;20465;-74
2024/01/16 06:59:34;;;;;;;3.33;2.03;;;20.70;48.00;;;;;;5050097;28;20429;-74
2024/01/16 07:02:04;;;;;;;2.23;2.03;;;20.80;47.90;;;;;;5048011;28;20454;-75
2024/01/16 07:04:32;;;;;;;2.63;1.93;;;20.70;47.80;;;;;;5047653;28;20447;-73
2024/01/16 07:07:01;;;;;;;5.40;2.23;;;20.80;47.80;;;;;;5048610;28;20523;-73
2024/01/16 07:09:29;;;;;;;5.63;1.83;;;20.80;47.70;;;;;;5047814;28;20532;-74
2024/01/16 07:11:57;;;;;;;5.10;2.27;;;20.80;47.70;;;;;;5044334;28;20453;-74
2024/01/16 07:14:25;;;;;;;3.53;2.40;;;20.80;47.70;;;;;;5048192;28;20427;-74
2024/01/16 07:16:54;;;;;;;2.30;2.10;;;20.80;47.70;;;;;;5049416;28;20479;-74
2024/01/16 07:19:23;;;;;;;2.67;1.90;;;20.80;47.70;;;;;;5049155;28;20451;-74
2024/01/16 07:21:52;;;;;;;2.40;1.80;;;20.80;47.60;;;;;;5045741;28;20427;-74
2024/01/16 07:24:20;;;;;;;4.30;2.17;;;20.80;47.60;;;;;;5049627;28;20450;-74
2024/01/16 07:26:48;;;;;;;5.10;2.07;;;20.80;47.60;;;;;;5049982;28;20482;-73
2024/01/16 07:29:16;;;;;;;3.70;2.47;;;20.80;47.70;;;;;;5049091;28;20439;-74
2024/01/16 07:31:45;;;;;;;5.07;2.17;;;20.80;47.60;;;;;;5049628;28;20535;-74
2024/01/16 07:34:17;;;;;;;2.70;1.60;;;20.80;47.60;;;;;;5049109;28;20945;-74
2024/01/16 07:36:46;;;;;;;2.27;1.57;;;20.80;47.70;;;;;;5050686;28;20443;-74
2024/01/16 07:39:16;;;;;;;3.20;2.30;;;20.80;47.70;;;;;;5053556;28;20440;-74
2024/01/16 07:41:44;;;;;;;5.37;2.07;;;20.80;47.70;;;;;;5050196;28;20931;-74
2024/01/16 07:44:12;;;;;;;2.20;1.90;;;20.80;47.70;;;;;;5053873;28;20439;-75
2024/01/16 07:46:41;;;;;;;4.67;2.13;;;20.80;47.70;;;;;;5054131;28;20490;-74
2024/01/16 07:49:09;;;;;;;4.27;2.67;;;20.80;47.80;;;;;;5053288;28;20534;-74
2024/01/16 07:51:37;;;;;;;2.60;2.10;;;20.80;47.80;;;;;;5053359;28;20468;-74
2024/01/16 07:54:09;;;;;;;2.63;2.10;;;20.90;47.80;;;;;;5053587;28;20509;-74
2024/01/16 07:56:38;;;;;;;3.43;2.17;;;20.90;47.80;;;;;;5054188;28;20432;-74
2024/01/16 07:59:07;;;;;;;2.40;2.20;;;20.90;47.80;;;;;;5053255;28;20450;-74
2024/01/16 08:01:35;;;;;;;3.33;1.97;;;20.90;47.70;;;;;;5049817;28;20463;-74
2024/01/16 08:04:03;;;;;;;2.10;1.93;;;20.90;47.70;;;;;;5052932;28;20806;-74
2024/01/16 08:06:33;;;;;;;4.30;2.70;;;20.90;47.70;;;;;;5053479;28;20444;-74
2024/01/16 08:09:01;;;;;;;3.20;2.07;;;20.90;47.70;;;;;;5052367;28;20451;-73
2024/01/16 08:11:31;;;;;;;4.27;2.10;;;20.90;47.70;;;;;;5053476;28;20476;-74
2024/01/16 08:13:59;;;;;;;3.40;2.07;;;20.90;47.70;;;;;;5053367;28;20489;-74
2024/01/16 08:16:28;;;;;;;2.17;2.00;;;20.90;47.60;;;;;;5053084;28;20473;-74
2024/01/16 08:18:56;;;;;;;2.90;2.30;;;20.90;47.60;;;;;;5052479;28;20950;-74
2024/01/16 08:21:24;;;;;;;3.57;1.90;;;21.00;47.60;;;;;;5050373;28;20936;-74
2024/01/16 08:23:53;;;;;;;3.33;2.33;;;21.00;47.60;;;;;;5052123;28;20486;-74
2024/01/16 08:26:21;;;;;;;2.63;1.97;;;20.90;47.60;;;;;;5052275;28;20460;-74
2024/01/16 08:28:51;;;;;;;2.27;2.07;;;20.90;47.60;;;;;;5050052;28;20461;-74
2024/01/16 08:31:19;;;;;;;2.27;1.83;;;21.00;47.60;;;;;;5051851;28;20482;-73
2024/01/16 08:33:48;;;;;;;1.97;1.77;;;20.90;47.60;;;;;;5051295;28;21169;-74
2024/01/16 08:36:20;;;;;;;3.23;1.83;;;21.00;47.50;;;;;;5052686;28;20448;-74
2024/01/16 08:38:48;;;;;;;2.03;1.70;;;21.00;47.50;;;;;;5052864;28;20451;-74
2024/01/16 08:41:17;;;;;;;3.17;1.90;;;21.00;47.50;;;;;;5052786;28;20779;-74
2024/01/16 08:43:45;;;;;;;2.60;2.17;;;21.00;47.50;;;;;;5052410;28;20540;-74
2024/01/16 08:46:15;;;;;;;2.97;2.23;;;21.00;47.50;;;;;;5052556;28;20443;-74
2024/01/16 08:48:43;;;;;;;2.40;1.83;;;21.00;47.50;;;;;;5051334;28;20511;-74
2024/01/16 08:51:13;;;;;;;2.37;2.17;;;21.00;47.50;;;;;;5050981;28;20980;-74
2024/01/16 08:53:42;;;;;;;2.80;1.90;;;21.00;47.50;;;;;;5051704;28;20514;-74
2024/01/16 08:56:12;;;;;;;2.20;1.83;;;21.00;47.50;;;;;;5052366;28;20477;-74
2024/01/16 08:58:40;;;;;;;1.83;1.73;;;21.00;47.50;;;;;;5049815;28;20927;-74
2024/01/16 09:01:10;;;;;;;1.97;1.50;;;21.00;47.40;;;;;;5048547;28;20773;-74
2024/01/16 09:03:39;;;;;;;3.10;2.90;;;21.00;47.40;;;;;;5049943;28;20452;-73
2024/01/16 09:06:08;;;;;;;2.27;2.07;;;21.10;47.40;;;;;;5052610;28;20443;-75
2024/01/16 09:08:37;;;;;;;2.30;2.07;;;21.10;47.40;;;;;;5052631;28;20484;-74
2024/01/16 09:11:05;;;;;;;1.70;1.50;;;21.10;47.30;;;;;;5048513;28;20468;-74
2024/01/16 09:13:33;;;;;;;2.00;1.80;;;21.10;47.30;;;;;;5050049;28;20452;-74
2024/01/16 09:16:02;;;;;;;2.80;1.93;;;21.10;47.30;;;;;;5052633;28;20444;-74
2024/01/16 09:18:30;;;;;;;1.53;1.43;;;21.10;47.30;;;;;;5051132;28;20427;-74
2024/01/16 09:21:00;;;;;;;1.90;1.80;;;21.10;47.20;;;;;;5052014;28;20494;-74
2024/01/16 09:23:28;;;;;;;2.30;2.10;;;21.10;47.20;;;;;;5052701;28;20573;-73
2024/01/16 09:25:56;;;;;;;2.40;1.33;;;21.10;47.20;;;;;;5052249;28;20451;-74
2024/01/16 09:28:25;;;;;;;2.10;1.80;;;21.10;47.20;;;;;;5048706;28;20465;-75
2024/01/16 09:30:55;;;;;;;1.93;1.83;;;21.10;47.20;;;;;;5051039;28;21162;-74
2024/01/16 09:33:25;;;;;;;2.07;1.87;;;21.10;47.20;;;;;;5049868;28;21131;-74
2024/01/16 09:35:53;;;;;;;1.80;1.40;;;21.10;47.20;;;;;;5046401;28;20455;-74
2024/01/16 09:38:23;;;;;;;1.60;1.50;;;21.10;47.20;;;;;;5049813;28;20447;-74
2024/01/16 09:40:52;;;;;;;1.60;1.50;;;21.10;47.20;;;;;;5049857;28;20436;-75
2024/01/16 09:43:21;;;;;;;2.07;1.87;;;21.10;47.20;;;;;;5051606;28;20455;-74
2024/01/16 09:45:52;;;;;;;1.70;1.60;;;21.10;47.10;;;;;;5051550;28;20452;-74
2024/01/16 09:48:20;;;;;;;1.80;1.70;;;21.20;47.10;;;;;;5050542;28;20427;-74
2024/01/16 09:50:49;;;;;;;1.90;1.80;;;21.20;47.10;;;;;;5046914;28;20852;-74
2024/01/16 09:53:17;;;;;;;1.80;1.70;;;21.20;47.10;;;;;;5051173;28;20451;-74
2024/01/16 09:55:49;;;;;;;1.97;1.80;;;21.20;47.00;;;;;;5051405;28;20441;-74
2024/01/16 09:58:20;;;;;;;1.93;1.80;;;21.20;47.00;;;;;;5047806;28;20464;-74
2024/01/16 10:00:53;;;;;;;2.10;1.70;;;21.20;47.00;;;;;;5043279;28;20480;-75
2024/01/16 10:03:22;;;;;;;1.70;1.60;;;21.20;47.00;;;;;;5049120;28;20457;-74
2024/01/16 10:05:50;;;;;;;2.03;1.70;;;21.20;46.90;;;;;;5048050;28;20494;-74
2024/01/16 10:08:21;;;;;;;1.47;1.37;;;21.30;46.90;;;;;;5049009;28;20486;-74
2024/01/16 10:10:51;;;;;;;1.87;1.70;;;21.30;46.90;;;;;;5049408;28;20438;-74
2024/01/16 10:13:21;;;;;;;1.57;1.43;;;21.30;46.90;;;;;;5049584;28;21110;-74
2024/01/16 10:15:52;;;;;;;2.20;2.10;;;21.30;46.80;;;;;;5051173;28;20451;-74
2024/01/16 10:18:25;;;;;;;1.60;1.50;;;21.40;46.80;;;;;;5047065;28;20469;-74
2024/01/16 10:20:54;;;;;;;2.30;2.10;;;21.40;46.80;;;;;;5048489;28;20464;-74
2024/01/16 10:23:27;;;;;;;1.80;1.70;;;21.40;46.80;;;;;;5049973;28;20790;-74
2024/01/16 10:26:10;;;;;;;2.03;1.60;;;21.40;46.70;;;;;;5051108;28;20432;-74
2024/01/16 10:28:41;;;;;;;2.17;1.80;;;21.50;46.70;;;;;;5049761;28;20455;-74
2024/01/16 10:31:10;;;;;;;1.90;1.80;;;21.50;46.60;;;;;;5047254;28;20521;-74
2024/01/16 10:33:39;;;;;;;3.70;2.17;;;21.50;46.60;;;;;;5050487;28;20484;-75
2024/01/16 10:36:12;;;;;;;1.77;1.67;;;21.60;46.50;;;;;;5049043;28;20531;-74
2024/01/16 10:38:42;;;;;;;1.80;1.70;;;21.50;46.50;;;;;;5050095;28;20770;-74
2024/01/16 10:41:13;;;;;;;2.87;2.17;;;21.50;46.50;;;;;;5046721;28;20458;-74
2024/01/16 10:43:43;;;;;;;2.20;2.10;;;21.50;46.50;;;;;;5050767;28;20441;-74
2024/01/16 10:46:14;;;;;;;2.00;1.70;;;21.50;46.50;;;;;;5051152;28;20426;-74
2024/01/16 10:48:43;;;;;;;2.30;1.93;;;21.50;46.50;;;;;;5046480;28;20451;-74
2024/01/16 10:51:15;;;;;;;2.80;2.13;;;21.50;46.50;;;;;;5050756;28;20925;-74
2024/01/16 10:53:46;;;;;;;1.90;1.80;;;21.50;46.50;;;;;;5050333;28;20430;-74
2024/01/16 10:56:19;;;;;;;2.20;2.00;;;21.60;46.50;;;;;;5046410;28;20437;-74
2024/01/16 10:58:59;;;;;;;1.70;1.60;;;21.60;46.50;;;;;;5046375;28;20460;-74
2024/01/16 11:01:28;;;;;;;1.60;1.50;;;21.70;46.30;;;;;;5044968;28;20462;-74
2024/01/16 11:03:59;;;;;;;2.03;1.87;;;21.80;46.20;;;;;;5046027;28;20461;-74
2024/01/16 11:06:28;;;;;;;2.00;1.83;;;21.80;46.10;;;;;;5048518;28;20916;-74
2024/01/16 11:08:58;;;;;;;2.00;1.80;;;21.80;46.10;;;;;;5045535;28;20796;-74
2024/01/16 11:11:29;;;;;;;2.20;2.03;;;21.80;46.10;;;;;;5057384;28;20454;-74
2024/01/16 11:13:58;;;;;;;1.90;1.80;;;21.80;46.10;;;;;;5052784;28;20528;-74
2024/01/16 11:16:27;;;;;;;2.03;1.90;;;21.80;46.10;;;;;;5054124;28;20437;-74
2024/01/16 11:18:55;;;;;;;2.47;2.20;;;21.80;46.10;;;;;;5053384;28;20445;-74
2024/01/16 11:21:44;;;;;;;2.40;2.07;;;21.80;46.10;;;;;;5053719;28;20448;-73
2024/01/16 11:24:13;;;;;;;2.20;2.00;;;21.80;46.10;;;;;;5052581;28;20456;-74
2024/01/16 11:26:43;;;;;;;1.97;1.80;;;21.90;46.10;;;;;;5048364;28;20465;-74
2024/01/16 11:29:35;;;;;;;2.37;2.17;;;21.90;46.00;;;;;;5052611;28;20480;-74
2024/01/16 11:32:05;;;;;;;2.43;2.03;;;22.00;46.00;;;;;;5050292;28;20520;-74
2024/01/16 11:34:56;;;;;;;2.40;2.20;;;22.00;46.00;;;;;;5052824;28;20455;-74
2024/01/16 11:37:28;;;;;;;1.90;1.80;;;22.00;46.00;;;;;;5054205;28;20556;-74
2024/01/16 11:40:26;;;;;;;2.50;2.30;;;22.00;46.00;;;;;;5054076;28;20447;-74
2024/01/16 11:42:56;;;;;;;2.83;2.63;;;21.90;46.00;;;;;;5052815;28;20453;-74
2024/01/16 11:45:50;;;;;;;2.10;1.90;;;21.90;46.00;;;;;;5054263;28;20461;-74
2024/01/16 11:48:19;;;;;;;2.93;2.30;;;21.90;46.00;;;;;;5048222;28;20468;-74
2024/01/16 11:50:48;;;;;;;2.23;2.03;;;21.90;46.00;;;;;;5054312;28;20450;-74
2024/01/16 11:53:37;;;;;;;2.10;1.90;;;22.00;46.00;;;;;;5049403;28;20467;-74
2024/01/16 11:56:30;;;;;;;2.60;2.40;;;22.00;46.00;;;;;;5050470;28;20446;-74
2024/01/16 12:00:00;;;;;;;3.73;2.60;;;21.90;46.00;;;;;;5051262;28;20544;-74
2024/01/16 12:02:39;;;;;;;2.57;2.37;;;21.90;46.00;;;;;;5048553;28;20497;-74
2024/01/16 12:05:08;;;;;;;3.67;3.13;;;21.90;46.00;;;;;;5046397;28;20935;-74
2024/01/16 12:07:50;;;;;;;3.50;2.77;;;21.90;46.00;;;;;;5046165;28;20592;-74
2024/01/16 12:10:19;;;;;;;4.97;2.50;;;22.00;46.00;;;;;;5050146;28;20551;-74
2024/01/16 12:12:48;;;;;;;2.93;2.30;;;22.00;45.90;;;;;;5050752;28;20988;-74
2024/01/16 12:15:19;;;;;;;2.73;2.53;;;22.10;45.90;;;;;;5049475;28;20942;-74
2024/01/16 12:17:55;;;;;;;3.00;2.57;;;22.20;45.80;;;;;;5050122;28;20451;-74
2024/01/16 12:20:25;;;;;;;5.97;3.20;;;22.30;45.70;;;;;;5050882;28;20445;-74
2024/01/16 12:22:58;;;;;;;3.23;2.70;;;22.50;45.50;;;;;;5051230;28;20552;-74
2024/01/16 12:25:27;;;;;;;4.17;2.93;;;22.70;45.30;;;;;;5052331;28;20469;-74
2024/01/16 12:28:19;;;;;;;4.97;2.50;;;22.80;45.10;;;;;;5043817;28;20800;-74
2024/01/16 12:31:02;;;;;;;4.87;2.73;;;22.90;44.80;;;;;;5046248;28;20511;-74
2024/01/16 12:33:31;;;;;;;3.00;2.80;;;23.10;44.70;;;;;;5046318;28;20475;-74
2024/01/16 12:36:04;;;;;;;2.40;2.20;;;23.10;44.60;;;;;;5045928;28;20474;-75
2024/01/16 12:38:34;;;;;;;3.20;2.73;;;23.20;44.60;;;;;;5052910;28;20469;-74
2024/01/16 12:41:08;;;;;;;2.63;2.43;;;23.20;44.60;;;;;;5058562;28;20516;-74
2024/01/16 12:43:38;;;;;;;3.00;2.53;;;23.30;44.50;;;;;;5053436;28;20461;-73
2024/01/16 12:46:08;;;;;;;2.97;2.40;;;23.30;44.50;;;;;;5056935;28;21008;-73
2024/01/16 12:48:37;;;;;;;2.77;2.40;;;23.40;44.40;;;;;;5050464;28;20820;-74
2024/01/16 12:51:23;;;;;;;2.67;2.40;;;23.40;44.30;;;;;;5054128;28;20460;-71
2024/01/16 12:53:51;;;;;;;4.03;2.33;;;23.40;44.30;;;;;;5050995;28;20479;-71
2024/01/16 12:56:21;;;;;;;4.07;2.47;;;23.50;44.40;;;;;;5051738;28;20934;-71
2024/01/16 12:59:10;;;;;;;2.37;2.03;;;23.50;44.50;;;;;;5051522;28;20464;-70
2024/01/16 13:01:43;;;;;;;3.37;2.60;;;23.60;44.60;;;;;;5052741;28;20434;-75
2024/01/16 13:04:11;;;;;;;2.47;2.20;;;23.60;44.70;;;;;;5050878;28;20869;-72